createdAt,value
2017-12-02T00:00:27.268Z,-0.70
2017-12-02T00:05:47.479Z,-0.70
2017-12-02T00:08:13.900Z,-0.80
2017-12-02T00:10:40.537Z,-0.80
2017-12-02T00:13:07.066Z,-0.80
2017-12-02T00:15:33.643Z,-0.70
2017-12-02T00:18:00.185Z,-0.80
2017-12-02T00:20:26.873Z,-0.90
2017-12-02T00:22:54.116Z,-1.00
2017-12-02T00:25:20.934Z,-1.10
2017-12-02T00:27:47.565Z,-1.10
2017-12-02T00:30:14.095Z,-1.10
2017-12-02T00:32:40.940Z,-1.20
2017-12-02T00:35:07.773Z,-1.30
2017-12-02T00:37:34.963Z,-1.20
2017-12-02T00:40:01.709Z,-1.20
2017-12-02T00:42:28.439Z,-1.20
2017-12-02T00:44:55.052Z,-1.20
2017-12-02T00:47:22.413Z,-1.10
2017-12-02T00:49:49.612Z,-1.10
2017-12-02T00:52:16.200Z,-1.10
2017-12-02T00:54:44.765Z,-1.00
2017-12-02T00:57:11.503Z,-1.00
2017-12-02T00:59:38.900Z,-1.00
2017-12-02T01:02:06.112Z,-0.90
2017-12-02T01:04:32.675Z,-1.00
2017-12-02T01:06:59.126Z,-0.90
2017-12-02T01:09:27.315Z,-0.80
2017-12-02T01:11:54.474Z,-0.80
2017-12-02T01:14:21.695Z,-0.80
2017-12-02T01:16:48.232Z,-0.80
2017-12-02T01:19:14.713Z,-0.80
2017-12-02T01:21:41.918Z,-1.00
2017-12-02T01:24:08.418Z,-1.10
2017-12-02T01:26:35.753Z,-1.00
2017-12-02T01:29:02.181Z,-1.00
2017-12-02T01:31:28.858Z,-1.00
2017-12-02T01:33:56.080Z,-1.00
2017-12-02T01:36:22.524Z,-1.00
2017-12-02T01:38:49.116Z,-1.00
2017-12-02T01:41:15.536Z,-1.00
2017-12-02T01:43:42.725Z,-1.00
2017-12-02T01:46:09.427Z,-1.00
2017-12-02T01:48:36.717Z,-1.10
2017-12-02T01:51:03.115Z,-1.10
2017-12-02T01:53:29.711Z,-1.20
2017-12-02T01:55:56.204Z,-1.20
2017-12-02T01:58:23.382Z,-1.20
2017-12-02T02:00:49.819Z,-1.20
2017-12-02T02:03:16.263Z,-1.20
2017-12-02T02:05:42.907Z,-1.20
2017-12-02T02:08:09.331Z,-1.20
2017-12-02T02:10:35.755Z,-1.40
2017-12-02T02:13:03.146Z,-1.30
2017-12-02T02:15:29.588Z,-1.30
2017-12-02T02:17:56.230Z,-1.40
2017-12-02T02:20:22.700Z,-1.40
2017-12-02T02:22:49.258Z,-1.40
2017-12-02T02:25:15.709Z,-1.50
2017-12-02T02:27:42.900Z,-1.50
2017-12-02T02:30:09.495Z,-1.50
2017-12-02T02:32:35.915Z,-1.40
2017-12-02T02:35:02.363Z,-1.40
2017-12-02T02:37:28.812Z,-1.50
2017-12-02T02:39:55.455Z,-1.50
2017-12-02T02:42:22.652Z,-1.70
2017-12-02T02:44:49.136Z,-1.70
2017-12-02T02:47:15.560Z,-1.70
2017-12-02T02:49:41.972Z,-1.70
2017-12-02T02:52:08.616Z,-1.80
2017-12-02T02:54:35.025Z,-1.80
2017-12-02T02:57:02.202Z,-1.80
2017-12-02T02:59:28.782Z,-1.80
2017-12-02T03:01:55.193Z,-1.90
2017-12-02T03:04:21.727Z,-2.00
2017-12-02T03:06:48.149Z,-2.00
2017-12-02T03:09:15.330Z,-2.20
2017-12-02T03:11:41.743Z,-2.20
2017-12-02T03:14:08.919Z,-2.20
2017-12-02T03:16:35.391Z,-2.40
2017-12-02T03:19:01.812Z,-2.10
2017-12-02T03:21:28.267Z,-2.00
2017-12-02T03:23:54.695Z,-2.00
2017-12-02T03:26:21.324Z,-2.10
2017-12-02T03:28:48.770Z,-2.10
2017-12-02T03:31:15.195Z,-2.00
2017-12-02T03:33:42.392Z,-1.80
2017-12-02T03:36:08.800Z,-1.80
2017-12-02T03:38:35.230Z,-1.70
2017-12-02T03:41:02.413Z,-1.50
2017-12-02T03:43:28.847Z,-1.50
2017-12-02T03:45:55.324Z,-1.50
2017-12-02T03:48:21.729Z,-1.40
2017-12-02T03:50:48.202Z,-1.30
2017-12-02T03:53:14.765Z,-1.30
2017-12-02T03:55:41.179Z,-1.10
2017-12-02T03:58:07.798Z,-1.10
2017-12-02T04:00:34.240Z,-1.10
2017-12-02T04:03:00.672Z,-1.10
2017-12-02T04:05:27.099Z,-1.00
2017-12-02T04:07:53.531Z,-1.00
2017-12-02T04:10:30.136Z,-1.00
2017-12-02T04:12:56.524Z,-0.90
2017-12-02T04:15:23.772Z,-0.90
2017-12-02T04:17:51.058Z,-0.90
2017-12-02T04:20:17.475Z,-0.90
2017-12-02T04:22:43.992Z,-0.90
2017-12-02T04:25:10.393Z,-0.90
2017-12-02T04:27:36.840Z,-0.90
2017-12-02T04:30:03.276Z,-0.90
2017-12-02T04:32:29.699Z,-0.90
2017-12-02T04:34:56.175Z,-0.90
2017-12-02T04:37:22.723Z,-0.90
2017-12-02T04:39:49.198Z,-0.90
2017-12-02T04:42:15.642Z,-0.90
2017-12-02T04:44:42.261Z,-0.90
2017-12-02T04:47:09.483Z,-0.80
2017-12-02T04:49:36.071Z,-0.80
2017-12-02T04:52:03.284Z,-0.70
2017-12-02T04:54:29.673Z,-0.70
2017-12-02T04:56:56.124Z,-0.70
2017-12-02T04:59:22.628Z,-0.70
2017-12-02T05:01:49.014Z,-0.70
2017-12-02T05:04:15.470Z,-0.70
2017-12-02T05:06:41.879Z,-0.80
2017-12-02T05:09:08.266Z,-0.80
2017-12-02T05:11:34.724Z,-0.80
2017-12-02T05:14:01.894Z,-0.80
2017-12-02T05:16:28.427Z,-0.80
2017-12-02T05:18:55.694Z,-0.80
2017-12-02T05:21:22.112Z,-0.80
2017-12-02T05:23:49.293Z,-0.80
2017-12-02T05:26:15.704Z,-0.80
2017-12-02T05:28:42.866Z,-0.80
2017-12-02T05:31:10.025Z,-0.70
2017-12-02T05:33:37.195Z,-0.80
2017-12-02T05:36:03.655Z,-0.80
2017-12-02T05:38:30.083Z,-0.90
2017-12-02T05:40:56.510Z,-0.70
2017-12-02T05:43:22.994Z,-0.80
2017-12-02T05:45:49.400Z,-0.70
2017-12-02T05:48:15.812Z,-0.80
2017-12-02T05:50:42.986Z,-0.60
2017-12-02T05:53:09.461Z,-0.70
2017-12-02T05:55:35.882Z,-0.60
2017-12-02T05:58:02.307Z,-0.70
2017-12-02T06:00:28.790Z,-0.70
2017-12-02T06:02:55.221Z,-0.60
2017-12-02T06:05:21.631Z,-0.60
2017-12-02T06:07:48.207Z,-0.60
2017-12-02T06:10:14.700Z,-0.70
2017-12-02T06:12:41.143Z,-0.80
2017-12-02T06:15:07.738Z,-0.80
2017-12-02T06:17:34.377Z,-0.70
2017-12-02T06:20:00.808Z,-0.80
2017-12-02T06:22:27.253Z,-0.80
2017-12-02T06:24:54.455Z,-0.80
2017-12-02T06:27:21.046Z,-0.80
2017-12-02T06:29:47.490Z,-1.00
2017-12-02T06:32:13.955Z,-0.80
2017-12-02T06:34:41.131Z,-0.70
2017-12-02T06:37:07.623Z,-0.70
2017-12-02T06:39:34.105Z,-0.70
2017-12-02T06:42:00.579Z,-0.80
2017-12-02T06:44:27.015Z,-0.80
2017-12-02T06:46:53.443Z,-0.90
2017-12-02T06:49:19.871Z,-0.90
2017-12-02T06:51:46.437Z,-0.90
2017-12-02T06:54:12.906Z,-0.80
2017-12-02T06:56:40.158Z,-0.80
2017-12-02T06:59:06.570Z,-0.80
2017-12-02T07:01:33.172Z,-0.80
2017-12-02T07:04:00.329Z,-0.80
2017-12-02T07:06:27.537Z,-0.80
2017-12-02T07:08:54.005Z,-0.80
2017-12-02T07:11:21.225Z,-0.80
2017-12-02T07:13:47.688Z,-0.80
2017-12-02T07:16:15.660Z,-0.70
2017-12-02T07:18:42.086Z,-0.70
2017-12-02T07:21:09.276Z,-0.60
2017-12-02T07:23:36.672Z,-0.60
2017-12-02T07:26:03.330Z,-0.60
2017-12-02T07:28:29.773Z,-0.60
2017-12-02T07:30:56.304Z,-0.60
2017-12-02T07:33:22.759Z,-0.60
2017-12-02T07:35:49.193Z,-0.60
2017-12-02T07:38:15.670Z,-0.60
2017-12-02T07:40:42.856Z,-0.60
2017-12-02T07:43:09.316Z,-0.60
2017-12-02T07:45:35.743Z,-0.60
2017-12-02T07:48:02.169Z,-0.60
2017-12-02T07:50:28.630Z,-0.60
2017-12-02T07:52:55.276Z,-0.60
2017-12-02T07:55:21.719Z,-0.60
2017-12-02T07:57:48.209Z,-0.60
2017-12-02T08:00:15.484Z,-0.60
2017-12-02T08:02:41.941Z,-0.60
2017-12-02T08:05:08.446Z,-0.60
2017-12-02T08:07:50.565Z,-0.70
2017-12-02T08:10:17.030Z,-0.70
2017-12-02T08:12:43.495Z,-0.70
2017-12-02T08:15:09.908Z,-0.70
2017-12-02T08:17:36.347Z,-0.80
2017-12-02T08:20:02.808Z,-0.70
2017-12-02T08:22:29.262Z,-0.70
2017-12-02T08:24:56.424Z,-0.50
2017-12-02T08:27:23.616Z,-0.40
2017-12-02T08:29:50.055Z,-0.40
2017-12-02T08:32:16.736Z,-0.30
2017-12-02T08:34:43.215Z,-0.50
2017-12-02T08:37:09.625Z,-0.60
2017-12-02T08:39:36.105Z,-0.70
2017-12-02T08:42:02.516Z,-0.70
2017-12-02T08:44:29.712Z,-0.70
2017-12-02T08:46:56.171Z,-0.70
2017-12-02T08:49:22.582Z,-0.60
2017-12-02T08:51:49.062Z,-0.50
2017-12-02T08:54:15.507Z,-0.50
2017-12-02T08:56:41.981Z,-0.60
2017-12-02T08:59:09.145Z,-0.50
2017-12-02T09:01:35.659Z,-0.60
2017-12-02T09:04:02.843Z,-0.60
2017-12-02T09:06:29.258Z,-0.60
2017-12-02T09:08:56.518Z,-0.60
2017-12-02T09:11:23.692Z,-0.60
2017-12-02T09:13:50.136Z,-0.60
2017-12-02T09:16:16.702Z,-0.60
2017-12-02T09:18:43.118Z,-0.50
2017-12-02T09:21:09.551Z,-0.40
2017-12-02T09:23:36.004Z,-0.20
2017-12-02T09:26:02.461Z,-0.20
2017-12-02T09:28:28.968Z,-0.20
2017-12-02T09:30:55.567Z,-0.10
2017-12-02T09:33:21.971Z,-0.20
2017-12-02T09:35:48.509Z,-0.10
2017-12-02T09:38:14.942Z,-0.20
2017-12-02T09:40:41.379Z,-0.20
2017-12-02T09:43:07.910Z,-0.20
2017-12-02T09:45:34.401Z,-0.10
2017-12-02T09:48:00.813Z,-0.10
2017-12-02T09:50:27.326Z,-0.10
2017-12-02T09:52:53.768Z,0.00
2017-12-02T09:55:20.207Z,0.00
2017-12-02T09:57:46.622Z,0.00
2017-12-02T10:00:13.768Z,-0.30
2017-12-02T10:02:40.981Z,-0.30
2017-12-02T10:05:07.456Z,-0.30
2017-12-02T10:07:33.924Z,-0.30
2017-12-02T10:10:00.462Z,-0.30
2017-12-02T10:12:27.866Z,-0.30
2017-12-02T10:14:54.287Z,-0.30
2017-12-02T10:17:20.827Z,-0.30
2017-12-02T10:19:47.271Z,-0.30
2017-12-02T10:22:13.772Z,-0.40
2017-12-02T10:24:41.007Z,-0.30
2017-12-02T10:27:07.536Z,-0.40
2017-12-02T10:29:33.996Z,-0.30
2017-12-02T10:32:01.225Z,-0.10
2017-12-02T10:34:27.675Z,-0.20
2017-12-02T10:36:54.312Z,-0.20
2017-12-02T10:39:20.764Z,-0.20
2017-12-02T10:41:47.181Z,-0.30
2017-12-02T10:44:13.723Z,-0.30
2017-12-02T10:46:43.708Z,-0.30
2017-12-02T10:49:10.164Z,-0.40
2017-12-02T10:51:36.576Z,-0.20
2017-12-02T10:54:03.172Z,-0.20
2017-12-02T10:56:29.603Z,-0.10
2017-12-02T10:58:56.284Z,-0.10
2017-12-02T11:01:23.656Z,0.00
2017-12-02T11:03:50.384Z,0.00
2017-12-02T11:06:17.549Z,0.20
2017-12-02T11:08:44.763Z,0.40
2017-12-02T11:11:11.363Z,0.40
2017-12-02T11:13:37.799Z,0.50
2017-12-02T11:16:04.339Z,0.40
2017-12-02T11:18:30.788Z,0.30
2017-12-02T11:20:57.241Z,0.20
2017-12-02T11:23:23.783Z,0.00
2017-12-02T11:25:50.295Z,-0.10
2017-12-02T11:28:20.356Z,0.00
2017-12-02T11:30:47.002Z,-0.20
2017-12-02T11:33:13.472Z,-0.10
2017-12-02T11:35:40.684Z,0.00
2017-12-02T11:38:07.151Z,0.00
2017-12-02T11:40:33.607Z,0.00
2017-12-02T11:43:00.806Z,-0.10
2017-12-02T11:45:27.240Z,-0.10
2017-12-02T11:47:53.706Z,-0.10
2017-12-02T11:50:20.136Z,-0.10
2017-12-02T11:52:46.613Z,-0.10
2017-12-02T11:55:13.093Z,-0.20
2017-12-02T11:57:39.528Z,-0.10
2017-12-02T12:00:06.048Z,-0.10
2017-12-02T12:02:33.331Z,0.10
2017-12-02T12:04:59.775Z,0.10
2017-12-02T12:07:26.211Z,0.10
2017-12-02T12:09:52.682Z,0.20
2017-12-02T12:12:19.174Z,0.30
2017-12-02T12:14:45.700Z,0.40
2017-12-02T12:17:12.910Z,-0.10
2017-12-02T12:19:39.355Z,-0.10
2017-12-02T12:22:05.969Z,-0.20
2017-12-02T12:24:32.535Z,-0.20
2017-12-02T12:26:58.966Z,-0.30
2017-12-02T12:29:25.563Z,-0.40
2017-12-02T12:31:52.838Z,-0.10
2017-12-02T12:34:19.336Z,-0.10
2017-12-02T12:36:45.802Z,0.10
2017-12-02T12:39:12.288Z,0.00
2017-12-02T12:41:38.819Z,0.00
2017-12-02T12:44:05.290Z,-0.10
2017-12-02T12:46:31.824Z,-0.20
2017-12-02T12:48:58.339Z,-0.30
2017-12-02T12:51:25.104Z,-0.20
2017-12-02T12:53:51.654Z,-0.30
2017-12-02T12:56:18.095Z,-0.30
2017-12-02T12:58:44.900Z,-0.20
2017-12-02T13:01:11.367Z,0.00
2017-12-02T13:03:37.814Z,0.20
2017-12-02T13:06:04.267Z,0.40
2017-12-02T13:08:30.747Z,0.50
2017-12-02T13:10:57.197Z,0.50
2017-12-02T13:13:23.816Z,0.40
2017-12-02T13:15:50.315Z,-0.10
2017-12-02T13:18:16.780Z,-0.20
2017-12-02T13:20:43.269Z,-0.30
2017-12-02T13:23:09.748Z,-0.20
2017-12-02T13:25:39.141Z,-0.10
2017-12-02T13:28:05.692Z,0.00
2017-12-02T13:30:32.167Z,-0.10
2017-12-02T13:32:58.666Z,-0.20
2017-12-02T13:35:25.252Z,-0.20
2017-12-02T13:37:51.850Z,-0.20
2017-12-02T13:40:18.534Z,0.00
2017-12-02T13:42:45.106Z,0.10
2017-12-02T13:45:11.619Z,0.00
2017-12-02T13:47:38.078Z,-0.40
2017-12-02T13:50:04.586Z,-0.60
2017-12-02T13:52:31.772Z,-0.70
2017-12-02T13:54:58.236Z,-0.70
2017-12-02T13:57:24.734Z,-0.80
2017-12-02T13:59:51.387Z,-0.80
2017-12-02T14:02:17.875Z,-0.70
2017-12-02T14:04:44.556Z,-0.80
2017-12-02T14:07:11.736Z,-0.80
2017-12-02T14:09:38.227Z,-0.80
2017-12-02T14:12:04.723Z,-0.80
2017-12-02T14:14:31.150Z,-0.70
2017-12-02T14:16:57.622Z,-0.70
2017-12-02T14:19:24.104Z,-0.60
2017-12-02T14:21:51.351Z,-0.60
2017-12-02T14:24:18.543Z,-0.70
2017-12-02T14:26:45.093Z,-0.70
2017-12-02T14:29:11.970Z,-0.60
2017-12-02T14:31:38.849Z,-0.60
2017-12-02T14:34:06.345Z,-0.70
2017-12-02T14:36:32.885Z,-0.80
2017-12-02T14:38:59.357Z,-0.80
2017-12-02T14:41:25.994Z,-0.80
2017-12-02T14:43:52.463Z,-0.90
2017-12-02T14:46:19.193Z,-0.90
2017-12-02T14:48:45.751Z,-0.90
2017-12-02T14:51:12.388Z,-0.90
2017-12-02T14:53:39.004Z,-0.90
2017-12-02T14:56:05.419Z,-0.90
2017-12-02T14:58:32.261Z,-0.90
2017-12-02T15:00:58.731Z,-0.80
2017-12-02T15:03:25.394Z,-0.70
2017-12-02T15:05:51.843Z,-0.60
2017-12-02T15:08:18.358Z,-0.60
2017-12-02T15:10:45.027Z,-0.60
2017-12-02T15:13:11.465Z,-0.60
2017-12-02T15:15:37.972Z,-0.60
2017-12-02T15:18:04.438Z,-0.60
2017-12-02T15:20:30.930Z,-0.60
2017-12-02T15:22:57.395Z,-0.60
2017-12-02T15:25:30.769Z,-0.50
2017-12-02T15:27:57.244Z,-0.50
2017-12-02T15:30:23.801Z,-0.60
2017-12-02T15:32:50.396Z,-0.80
2017-12-02T15:35:16.854Z,-0.80
2017-12-02T15:37:43.492Z,-0.90
2017-12-02T15:40:10.001Z,-1.00
2017-12-02T15:42:36.706Z,-0.90
2017-12-02T15:45:03.250Z,-1.00
2017-12-02T15:47:29.792Z,-1.00
2017-12-02T15:49:56.575Z,-1.00
2017-12-02T15:52:23.110Z,-1.00
2017-12-02T15:54:49.567Z,-1.00
2017-12-02T15:57:16.035Z,-1.10
2017-12-02T15:59:42.578Z,-1.10
2017-12-02T16:02:09.064Z,-1.00
2017-12-02T16:04:35.660Z,-0.90
2017-12-02T16:07:02.186Z,-0.90
2017-12-02T16:09:28.660Z,-0.90
2017-12-02T16:11:56.024Z,-0.90
2017-12-02T16:14:23.297Z,-0.90
2017-12-02T16:16:50.551Z,-0.90
2017-12-02T16:19:17.843Z,-1.00
2017-12-02T16:21:44.304Z,-1.00
2017-12-02T16:24:10.845Z,-1.00
2017-12-02T16:26:37.306Z,-1.00
2017-12-02T16:29:03.928Z,-1.00
2017-12-02T16:31:30.483Z,-1.00
2017-12-02T16:33:57.023Z,-1.00
2017-12-02T16:36:23.471Z,-1.10
2017-12-02T16:38:49.913Z,-1.00
2017-12-02T16:41:48.342Z,-1.00
2017-12-02T16:44:15.331Z,-1.00
2017-12-02T16:46:42.847Z,-1.10
2017-12-02T16:49:09.490Z,-1.10
2017-12-02T16:51:35.954Z,-1.10
2017-12-02T16:54:02.432Z,-1.10
2017-12-02T16:56:29.665Z,-1.00
2017-12-02T16:58:57.640Z,-1.10
2017-12-02T17:01:24.118Z,-1.10
2017-12-02T17:03:50.744Z,-1.10
2017-12-02T17:06:17.973Z,-1.10
2017-12-02T17:08:45.290Z,-1.20
2017-12-02T17:11:11.745Z,-1.20
2017-12-02T17:13:38.238Z,-1.20
2017-12-02T17:16:05.649Z,-1.10
2017-12-02T17:18:32.059Z,-1.20
2017-12-02T17:20:58.491Z,-1.10
2017-12-02T17:23:25.180Z,-1.20
2017-12-02T17:25:51.842Z,-1.20
2017-12-02T17:28:18.299Z,-1.40
2017-12-02T17:30:45.464Z,-1.20
2017-12-02T17:33:12.659Z,-1.30
2017-12-02T17:35:39.084Z,-1.30
2017-12-02T17:38:05.655Z,-1.30
2017-12-02T17:40:32.139Z,-1.20
2017-12-02T17:42:59.373Z,-1.10
2017-12-02T17:45:26.974Z,-1.10
2017-12-02T17:47:53.452Z,-1.10
2017-12-02T17:50:19.978Z,-1.20
2017-12-02T17:52:46.404Z,-1.20
2017-12-02T17:55:13.068Z,-1.20
2017-12-02T17:57:40.525Z,-1.20
2017-12-02T18:00:06.969Z,-1.20
2017-12-02T18:02:33.424Z,-1.10
2017-12-02T18:04:59.917Z,-1.10
2017-12-02T18:07:26.404Z,-1.10
2017-12-02T18:09:52.853Z,-1.10
2017-12-02T18:12:19.318Z,-1.20
2017-12-02T18:14:46.537Z,-1.20
2017-12-02T18:17:13.036Z,-1.20
2017-12-02T18:19:39.488Z,-1.20
2017-12-02T18:22:06.350Z,-1.30
2017-12-02T18:24:32.785Z,-1.20
2017-12-02T18:26:59.279Z,-1.20
2017-12-02T18:29:26.476Z,-1.20
2017-12-02T18:31:52.945Z,-1.20
2017-12-02T18:34:19.462Z,-1.10
2017-12-02T18:36:46.085Z,-1.10
2017-12-02T18:39:12.749Z,-1.10
2017-12-02T18:41:39.292Z,-1.10
2017-12-02T18:44:06.510Z,-1.20
2017-12-02T18:46:46.332Z,-1.30
2017-12-02T18:49:12.976Z,-1.30
2017-12-02T18:51:39.479Z,-1.40
2017-12-02T18:54:05.950Z,-1.30
2017-12-02T18:56:32.390Z,-1.30
2017-12-02T18:58:58.926Z,-1.40
2017-12-02T19:01:26.396Z,-1.30
2017-12-02T19:03:55.291Z,-1.30
2017-12-02T19:06:21.791Z,-1.40
2017-12-02T19:08:48.378Z,-1.30
2017-12-02T19:11:14.866Z,-1.30
2017-12-02T19:13:41.462Z,-1.20
2017-12-02T19:16:08.058Z,-1.30
2017-12-02T19:18:34.757Z,-1.30
2017-12-02T19:21:02.063Z,-1.30
2017-12-02T19:23:28.594Z,-1.30
2017-12-02T19:25:55.176Z,-1.30
2017-12-02T19:28:21.734Z,-1.30
2017-12-02T19:30:48.484Z,-1.30
2017-12-02T19:33:14.977Z,-1.20
2017-12-02T19:35:41.558Z,-1.30
2017-12-02T19:38:08.200Z,-1.30
2017-12-02T19:40:34.695Z,-1.30
2017-12-02T19:43:01.435Z,-1.30
2017-12-02T19:45:28.150Z,-1.20
2017-12-02T19:47:55.645Z,-1.10
2017-12-02T19:50:22.164Z,-1.10
2017-12-02T19:52:49.427Z,-1.00
2017-12-02T19:55:16.782Z,-0.90
2017-12-02T19:57:43.476Z,-0.90
2017-12-02T20:00:10.005Z,-0.90
2017-12-02T20:02:36.599Z,-1.00
2017-12-02T20:05:03.888Z,-1.20
2017-12-02T20:07:30.444Z,-1.20
2017-12-02T20:09:59.113Z,-1.20
2017-12-02T20:12:25.616Z,-1.30
2017-12-02T20:14:52.924Z,-1.20
2017-12-02T20:17:19.576Z,-1.20
2017-12-02T20:19:46.516Z,-1.20
2017-12-02T20:22:13.113Z,-1.20
2017-12-02T20:24:40.440Z,-1.10
2017-12-02T20:27:07.057Z,-1.10
2017-12-02T20:29:33.698Z,-1.00
2017-12-02T20:32:01.254Z,-1.00
2017-12-02T20:34:27.862Z,-1.00
2017-12-02T20:36:55.182Z,-0.90
2017-12-02T20:39:21.751Z,-1.00
2017-12-02T20:41:48.278Z,-0.90
2017-12-02T20:44:14.779Z,-0.90
2017-12-02T20:46:41.315Z,-0.90
2017-12-02T20:49:07.874Z,-1.00
2017-12-02T20:51:34.454Z,-1.10
2017-12-02T20:54:01.306Z,-1.20
2017-12-02T20:56:28.801Z,-1.20
2017-12-02T20:58:55.391Z,-1.20
2017-12-02T21:01:21.997Z,-1.10
2017-12-02T21:03:48.880Z,-1.20
2017-12-02T21:06:15.844Z,-1.10
2017-12-02T21:08:43.489Z,-1.00
2017-12-02T21:11:10.148Z,-1.00
2017-12-02T21:13:37.266Z,-1.30
2017-12-02T21:16:04.186Z,-1.40
2017-12-02T21:18:37.868Z,-1.30
2017-12-02T21:21:06.574Z,-1.30
2017-12-02T21:23:33.974Z,-1.50
2017-12-02T21:26:00.516Z,-1.50
2017-12-02T21:28:27.120Z,-1.50
2017-12-02T21:30:53.860Z,-1.50
2017-12-02T21:33:21.113Z,-1.60
2017-12-02T21:35:48.381Z,-1.60
2017-12-02T21:38:15.758Z,-1.50
2017-12-02T21:40:42.310Z,-1.50
2017-12-02T21:43:08.902Z,-1.50
2017-12-02T21:45:36.397Z,-1.50
2017-12-02T21:48:03.003Z,-1.50
2017-12-02T21:50:29.599Z,-1.50
2017-12-02T21:52:56.280Z,-1.50
2017-12-02T21:55:22.747Z,-1.50
2017-12-02T21:57:49.426Z,-1.50
2017-12-02T22:00:16.005Z,-1.50
2017-12-02T22:02:42.518Z,-1.40
2017-12-02T22:05:09.055Z,-1.40
2017-12-02T22:07:35.741Z,-1.30
2017-12-02T22:10:02.645Z,-1.40
2017-12-02T22:12:29.356Z,-1.40
2017-12-02T22:14:56.792Z,-1.30
2017-12-02T22:17:24.831Z,-1.30
2017-12-02T22:19:51.266Z,-1.30
2017-12-02T22:22:17.774Z,-1.30
2017-12-02T22:24:45.021Z,-1.40
2017-12-02T22:27:11.503Z,-1.40
2017-12-02T22:29:38.128Z,-1.40
2017-12-02T22:32:04.647Z,-1.50
2017-12-02T22:34:31.185Z,-1.50
2017-12-02T22:36:58.495Z,-1.40
2017-12-02T22:39:24.991Z,-1.50
2017-12-02T22:41:52.241Z,-1.50
2017-12-02T22:44:18.800Z,-1.50
2017-12-02T22:46:46.050Z,-1.50
2017-12-02T22:49:13.534Z,-1.40
2017-12-02T22:51:40.070Z,-1.50
2017-12-02T22:54:07.368Z,-1.40
2017-12-02T22:56:34.082Z,-1.40
2017-12-02T22:59:00.558Z,-1.30
2017-12-02T23:01:27.201Z,-1.30
2017-12-02T23:03:53.813Z,-1.20
2017-12-02T23:06:20.662Z,-1.20
2017-12-02T23:08:47.440Z,-1.20
2017-12-02T23:11:13.912Z,-1.20
2017-12-02T23:13:41.325Z,-1.20
2017-12-02T23:16:07.975Z,-1.30
2017-12-02T23:18:35.386Z,-1.20
2017-12-02T23:21:02.816Z,-1.10
2017-12-02T23:23:29.332Z,-1.20
2017-12-02T23:25:55.809Z,-1.20
2017-12-02T23:28:23.205Z,-1.00
2017-12-02T23:30:49.707Z,-1.10
2017-12-02T23:33:16.252Z,-1.10
2017-12-02T23:35:42.938Z,-1.00
2017-12-02T23:38:09.414Z,-1.00
2017-12-02T23:40:36.186Z,-1.00
2017-12-02T23:43:03.483Z,-1.10
2017-12-02T23:45:30.004Z,-1.10
2017-12-02T23:47:56.502Z,-1.00
2017-12-02T23:50:22.959Z,-1.00
2017-12-02T23:52:49.950Z,-1.00
2017-12-02T23:55:17.381Z,-0.90
2017-12-02T23:57:44.611Z,-0.80
